createdAt,value
2023-02-14T00:02:32.728Z,1.60
2023-02-14T00:05:18.048Z,1.69
2023-02-14T00:08:03.531Z,1.81
2023-02-14T00:10:48.712Z,1.74
2023-02-14T00:13:34.264Z,1.84
2023-02-14T00:16:19.278Z,2.02
2023-02-14T00:19:04.805Z,2.12
2023-02-14T00:21:50.731Z,2.13
2023-02-14T00:24:35.908Z,1.98
2023-02-14T00:27:21.293Z,2.02
2023-02-14T00:30:08.286Z,2.01
2023-02-14T00:32:53.508Z,2.13
2023-02-14T00:35:38.486Z,2.16
2023-02-14T00:38:23.585Z,2.14
2023-02-14T00:41:08.979Z,2.10
2023-02-14T00:43:55.175Z,2.05
2023-02-14T00:46:40.830Z,2.13
2023-02-14T00:49:26.350Z,2.22
2023-02-14T00:52:11.602Z,2.16
2023-02-14T00:54:56.958Z,2.19
2023-02-14T00:57:42.962Z,2.14
2023-02-14T01:00:28.230Z,2.02
2023-02-14T01:03:13.704Z,2.08
2023-02-14T01:05:58.736Z,1.95
2023-02-14T01:08:44.311Z,2.08
2023-02-14T01:11:30.392Z,2.15
2023-02-14T01:14:15.761Z,2.27
2023-02-14T01:17:00.944Z,2.26
2023-02-14T01:19:46.381Z,2.36
2023-02-14T01:22:37.839Z,2.33
2023-02-14T01:25:23.190Z,2.23
2023-02-14T01:28:08.552Z,2.18
2023-02-14T01:30:54.162Z,2.20
2023-02-14T01:33:41.391Z,2.20
2023-02-14T01:36:29.654Z,2.28
2023-02-14T01:39:15.737Z,2.05
2023-02-14T01:42:00.879Z,2.15
2023-02-14T01:44:56.927Z,1.98
2023-02-14T01:47:44.515Z,1.99
2023-02-14T01:50:36.073Z,2.09
2023-02-14T01:53:26.628Z,2.09
2023-02-14T01:56:18.586Z,2.01
2023-02-14T01:59:07.460Z,1.95
2023-02-14T02:01:53.772Z,1.82
2023-02-14T02:04:44.782Z,2.04
2023-02-14T02:07:30.132Z,2.16
2023-02-14T02:10:15.047Z,2.20
2023-02-14T02:13:06.093Z,2.14
2023-02-14T02:16:11.640Z,1.99
2023-02-14T02:19:31.732Z,1.54
2023-02-14T02:22:46.997Z,1.91
2023-02-14T02:25:53.661Z,2.07
2023-02-14T02:29:05.217Z,2.20
2023-02-14T02:32:12.269Z,2.07
2023-02-14T02:35:20.867Z,2.10
2023-02-14T02:38:18.051Z,2.04
2023-02-14T02:41:22.847Z,2.04
2023-02-14T02:44:10.882Z,1.91
2023-02-14T02:47:07.294Z,1.74
2023-02-14T02:50:12.086Z,1.69
2023-02-14T02:53:07.356Z,1.87
2023-02-14T02:56:16.109Z,1.95
2023-02-14T02:59:05.980Z,1.97
2023-02-14T03:02:30.273Z,1.81
2023-02-14T03:05:15.456Z,1.89
2023-02-14T03:08:00.857Z,1.84
2023-02-14T03:10:46.383Z,1.92
2023-02-14T03:13:58.798Z,1.89
2023-02-14T03:16:56.863Z,1.78
2023-02-14T03:19:52.819Z,1.79
2023-02-14T03:22:38.062Z,1.74
2023-02-14T03:25:42.128Z,1.70
2023-02-14T03:28:52.270Z,1.78
2023-02-14T03:32:10.817Z,1.78
2023-02-14T03:35:37.043Z,1.61
2023-02-14T03:38:24.433Z,1.49
2023-02-14T03:41:18.319Z,1.45
2023-02-14T03:44:07.015Z,1.07
2023-02-14T03:46:58.703Z,1.11
2023-02-14T03:49:55.226Z,0.87
2023-02-14T03:52:42.311Z,1.06
2023-02-14T03:55:41.270Z,1.14
2023-02-14T03:58:30.094Z,1.19
2023-02-14T04:01:32.809Z,1.00
2023-02-14T04:04:20.087Z,0.98
2023-02-14T04:07:11.008Z,1.17
2023-02-14T04:09:56.234Z,1.23
2023-02-14T04:12:41.727Z,1.23
2023-02-14T04:15:26.853Z,1.23
2023-02-14T04:18:11.756Z,0.95
2023-02-14T04:20:56.835Z,0.77
2023-02-14T04:23:42.470Z,0.75
2023-02-14T04:26:27.739Z,0.91
2023-02-14T04:29:12.527Z,0.91
2023-02-14T04:31:57.411Z,0.75
2023-02-14T04:34:43.164Z,0.67
2023-02-14T04:37:28.560Z,0.72
2023-02-14T04:40:14.211Z,0.69
2023-02-14T04:42:59.587Z,0.64
2023-02-14T04:45:45.220Z,0.58
2023-02-14T04:48:30.782Z,0.39
2023-02-14T04:51:15.933Z,0.47
2023-02-14T04:54:00.850Z,0.26
2023-02-14T04:56:45.605Z,0.19
2023-02-14T04:59:30.602Z,0.26
2023-02-14T05:02:16.010Z,0.29
2023-02-14T05:05:01.579Z,0.29
2023-02-14T05:07:46.980Z,0.26
2023-02-14T05:10:32.018Z,0.29
2023-02-14T05:13:17.115Z,0.35
2023-02-14T05:16:02.244Z,0.32
2023-02-14T05:18:47.698Z,0.28
2023-02-14T05:21:32.818Z,0.45
2023-02-14T05:24:18.540Z,0.58
2023-02-14T05:27:03.884Z,0.75
2023-02-14T05:29:48.846Z,0.78
2023-02-14T05:32:34.268Z,0.74
2023-02-14T05:35:19.275Z,0.84
2023-02-14T05:38:04.586Z,0.82
2023-02-14T05:40:49.899Z,0.51
2023-02-14T05:43:35.320Z,0.58
2023-02-14T05:46:20.821Z,0.63
2023-02-14T05:49:05.567Z,0.64
2023-02-14T05:51:51.133Z,0.45
2023-02-14T05:54:36.098Z,0.33
2023-02-14T05:57:21.178Z,0.24
2023-02-14T06:00:07.541Z,0.24
2023-02-14T06:02:52.516Z,0.50
2023-02-14T06:05:37.463Z,0.66
2023-02-14T06:08:23.244Z,0.63
2023-02-14T06:11:08.205Z,0.59
2023-02-14T06:13:53.417Z,0.55
2023-02-14T06:16:38.470Z,0.46
2023-02-14T06:19:23.838Z,0.53
2023-02-14T06:22:10.801Z,0.44
2023-02-14T06:24:56.105Z,0.33
2023-02-14T06:27:41.736Z,-0.03
2023-02-14T06:30:28.108Z,0.02
2023-02-14T06:33:13.502Z,-0.01
2023-02-14T06:35:58.501Z,0.17
2023-02-14T06:38:43.908Z,0.15
2023-02-14T06:41:29.560Z,0.32
2023-02-14T06:44:14.994Z,0.33
2023-02-14T06:47:00.014Z,0.34
2023-02-14T06:49:45.013Z,0.46
2023-02-14T06:52:29.833Z,0.34
2023-02-14T06:55:14.902Z,0.07
2023-02-14T06:58:00.223Z,-0.03
2023-02-14T07:00:46.567Z,-0.13
2023-02-14T07:03:31.693Z,-0.28
2023-02-14T07:06:17.163Z,-0.27
2023-02-14T07:09:03.295Z,-0.36
2023-02-14T07:11:48.517Z,-0.40
2023-02-14T07:14:33.789Z,-0.12
2023-02-14T07:17:19.119Z,-0.13
2023-02-14T07:20:09.490Z,0.04
2023-02-14T07:22:54.790Z,0.11
2023-02-14T07:25:39.815Z,0.12
2023-02-14T07:28:24.878Z,0.08
2023-02-14T07:31:09.768Z,0.18
2023-02-14T07:33:55.151Z,0.24
2023-02-14T07:36:40.475Z,0.31
2023-02-14T07:39:25.860Z,0.39
2023-02-14T07:42:11.290Z,0.45
2023-02-14T07:44:56.494Z,0.54
2023-02-14T07:47:41.410Z,0.59
2023-02-14T07:50:26.253Z,0.77
2023-02-14T07:53:11.896Z,0.89
2023-02-14T07:55:57.368Z,1.00
2023-02-14T07:58:42.448Z,1.11
2023-02-14T08:01:27.725Z,1.17
2023-02-14T08:04:12.987Z,1.20
2023-02-14T08:06:58.042Z,1.32
2023-02-14T08:09:43.304Z,1.34
2023-02-14T08:12:28.432Z,1.46
2023-02-14T08:15:13.222Z,1.57
2023-02-14T08:17:58.729Z,1.62
2023-02-14T08:20:45.967Z,1.71
2023-02-14T08:23:31.357Z,1.86
2023-02-14T08:26:16.830Z,1.99
2023-02-14T08:29:02.224Z,2.16
2023-02-14T08:31:47.982Z,2.40
2023-02-14T08:34:33.449Z,2.54
2023-02-14T08:37:19.033Z,2.68
2023-02-14T08:40:05.116Z,2.85
2023-02-14T08:42:49.787Z,3.00
2023-02-14T08:45:35.240Z,3.19
2023-02-14T08:48:20.647Z,3.31
2023-02-14T08:51:07.618Z,3.38
2023-02-14T08:53:52.685Z,3.45
2023-02-14T08:56:37.483Z,3.56
2023-02-14T08:59:22.978Z,3.75
2023-02-14T09:02:12.419Z,3.98
2023-02-14T09:04:57.783Z,4.13
2023-02-14T09:07:43.611Z,4.13
2023-02-14T09:10:29.911Z,4.31
2023-02-14T09:13:15.062Z,4.47
2023-02-14T09:16:04.376Z,4.56
2023-02-14T09:18:50.179Z,4.69
2023-02-14T09:21:35.342Z,4.85
2023-02-14T09:24:20.269Z,5.07
2023-02-14T09:27:05.533Z,5.24
2023-02-14T09:29:50.678Z,5.39
2023-02-14T09:32:36.244Z,5.61
2023-02-14T09:35:21.343Z,5.78
2023-02-14T09:38:06.398Z,6.11
2023-02-14T09:40:51.233Z,6.45
2023-02-14T09:43:51.107Z,6.83
2023-02-14T09:46:43.306Z,7.14
2023-02-14T09:49:33.787Z,6.98
2023-02-14T09:52:23.298Z,7.32
2023-02-14T09:55:14.472Z,7.30
2023-02-14T09:58:15.134Z,7.39
2023-02-14T10:01:14.959Z,7.19
2023-02-14T10:03:59.969Z,7.24
2023-02-14T10:06:49.751Z,7.77
2023-02-14T10:09:56.093Z,8.02
2023-02-14T10:12:54.670Z,7.74
2023-02-14T10:15:50.603Z,7.89
2023-02-14T10:18:57.629Z,7.86
2023-02-14T10:21:51.340Z,8.17
2023-02-14T10:24:42.897Z,8.69
2023-02-14T10:27:30.955Z,9.31
2023-02-14T10:30:22.496Z,9.47
2023-02-14T10:33:19.191Z,9.16
2023-02-14T10:36:11.822Z,9.46
2023-02-14T10:39:21.476Z,10.41
2023-02-14T10:42:21.579Z,10.65
2023-02-14T10:45:18.992Z,11.15
2023-02-14T10:48:19.650Z,11.64
2023-02-14T10:51:21.417Z,11.82
2023-02-14T10:54:22.841Z,12.03
2023-02-14T10:57:24.811Z,12.58
2023-02-14T11:00:22.014Z,12.64
2023-02-14T11:03:09.103Z,12.70
2023-02-14T11:05:54.299Z,11.71
2023-02-14T11:08:41.400Z,10.72
2023-02-14T11:11:45.775Z,11.09
2023-02-14T11:14:34.771Z,11.57
2023-02-14T11:17:31.692Z,11.80
2023-02-14T11:20:27.221Z,11.89
2023-02-14T11:23:20.747Z,12.21
2023-02-14T11:26:11.707Z,12.64
2023-02-14T11:29:00.127Z,13.32
2023-02-14T11:31:45.501Z,14.22
2023-02-14T11:34:40.670Z,14.56
2023-02-14T11:37:27.834Z,14.13
2023-02-14T11:40:35.038Z,13.89
2023-02-14T11:43:31.500Z,13.69
2023-02-14T11:46:19.768Z,14.74
2023-02-14T11:49:21.750Z,14.07
2023-02-14T11:52:15.869Z,12.92
2023-02-14T11:55:01.193Z,12.92
2023-02-14T11:57:46.643Z,13.43
2023-02-14T12:00:33.018Z,13.67
2023-02-14T12:03:19.573Z,14.02
2023-02-14T12:06:05.603Z,13.61
2023-02-14T12:09:22.665Z,12.64
2023-02-14T12:12:22.370Z,13.15
2023-02-14T12:15:38.023Z,13.49
2023-02-14T12:18:42.283Z,13.49
2023-02-14T12:21:44.032Z,13.68
2023-02-14T12:24:39.363Z,13.56
2023-02-14T12:27:34.740Z,14.01
2023-02-14T12:30:22.742Z,14.47
2023-02-14T12:33:40.669Z,13.70
2023-02-14T12:37:03.471Z,13.86
2023-02-14T12:40:02.988Z,14.61
2023-02-14T12:42:54.384Z,14.32
2023-02-14T12:46:01.428Z,14.74
2023-02-14T12:48:55.782Z,14.98
2023-02-14T12:52:06.868Z,14.72
2023-02-14T12:55:17.087Z,14.69
2023-02-14T12:58:28.930Z,14.91
2023-02-14T13:01:24.735Z,16.17
2023-02-14T13:04:54.585Z,16.66
2023-02-14T13:07:48.547Z,15.91
2023-02-14T13:11:08.227Z,15.16
2023-02-14T13:13:57.331Z,15.02
2023-02-14T13:17:07.786Z,16.07
2023-02-14T13:20:20.502Z,16.64
2023-02-14T13:23:13.155Z,16.41
2023-02-14T13:26:03.945Z,15.57
2023-02-14T13:29:13.300Z,15.98
2023-02-14T13:32:01.826Z,16.37
2023-02-14T13:34:48.647Z,15.70
2023-02-14T13:37:35.722Z,16.70
2023-02-14T13:40:25.083Z,15.38
2023-02-14T13:43:10.302Z,16.54
2023-02-14T13:45:55.786Z,15.90
2023-02-14T13:48:42.722Z,15.75
2023-02-14T13:51:46.688Z,16.18
2023-02-14T13:54:45.994Z,16.74
2023-02-14T13:57:33.996Z,16.84
2023-02-14T14:00:19.239Z,17.08
2023-02-14T14:03:05.893Z,16.57
2023-02-14T14:06:01.512Z,16.39
2023-02-14T14:08:53.011Z,17.22
2023-02-14T14:11:38.137Z,17.11
2023-02-14T14:14:29.261Z,15.65
2023-02-14T14:17:20.790Z,16.42
2023-02-14T14:20:21.035Z,16.66
2023-02-14T14:23:28.090Z,16.10
2023-02-14T14:26:47.308Z,15.71
2023-02-14T14:29:39.950Z,16.44
2023-02-14T14:32:36.725Z,17.38
2023-02-14T14:35:24.899Z,17.07
2023-02-14T14:38:13.436Z,17.47
2023-02-14T14:41:00.088Z,17.79
2023-02-14T14:43:46.584Z,17.10
2023-02-14T14:46:31.646Z,16.00
2023-02-14T14:49:17.176Z,15.39
2023-02-14T14:52:39.527Z,16.69
2023-02-14T14:55:30.823Z,17.70
2023-02-14T14:58:39.407Z,18.09
2023-02-14T15:01:38.275Z,18.37
2023-02-14T15:04:35.705Z,17.67
2023-02-14T15:07:41.220Z,17.59
2023-02-14T15:10:30.158Z,16.87
2023-02-14T15:13:36.305Z,16.57
2023-02-14T15:16:28.798Z,16.38
2023-02-14T15:19:45.006Z,16.62
2023-02-14T15:22:50.695Z,16.65
2023-02-14T15:25:37.877Z,16.64
2023-02-14T15:28:32.808Z,16.44
2023-02-14T15:31:30.467Z,15.75
2023-02-14T15:34:15.607Z,16.08
2023-02-14T15:37:01.436Z,16.53
2023-02-14T15:39:53.382Z,16.90
2023-02-14T15:42:43.683Z,16.28
2023-02-14T15:45:42.028Z,15.59
2023-02-14T15:48:33.545Z,15.02
2023-02-14T15:51:30.731Z,14.66
2023-02-14T15:54:35.373Z,14.30
2023-02-14T15:57:32.390Z,14.39
2023-02-14T16:00:19.657Z,14.15
2023-02-14T16:03:07.646Z,13.91
2023-02-14T16:05:53.226Z,13.83
2023-02-14T16:08:40.425Z,13.78
2023-02-14T16:11:30.423Z,13.77
2023-02-14T16:14:36.370Z,13.49
2023-02-14T16:17:35.620Z,13.32
2023-02-14T16:20:23.420Z,12.99
2023-02-14T16:23:24.338Z,12.79
2023-02-14T16:26:09.496Z,12.55
2023-02-14T16:28:54.778Z,12.47
2023-02-14T16:32:14.177Z,12.15
2023-02-14T16:34:57.046Z,11.90
2023-02-14T16:37:45.277Z,12.01
2023-02-14T16:40:31.798Z,11.75
2023-02-14T16:43:19.589Z,11.58
2023-02-14T16:46:04.614Z,11.30
2023-02-14T16:48:50.008Z,11.13
2023-02-14T16:51:36.610Z,11.03
2023-02-14T16:54:26.370Z,10.74
2023-02-14T16:57:22.239Z,10.51
2023-02-14T17:00:08.088Z,10.29
2023-02-14T17:02:54.703Z,10.19
2023-02-14T17:05:40.673Z,10.17
2023-02-14T17:08:26.092Z,10.11
2023-02-14T17:11:11.248Z,9.96
2023-02-14T17:13:56.563Z,9.72
2023-02-14T17:16:42.568Z,9.45
2023-02-14T17:19:27.783Z,9.74
2023-02-14T17:22:14.084Z,9.50
2023-02-14T17:24:59.388Z,9.64
2023-02-14T17:27:44.179Z,9.53
2023-02-14T17:30:29.182Z,9.06
2023-02-14T17:33:14.076Z,8.98
2023-02-14T17:36:07.439Z,8.84
2023-02-14T17:38:53.950Z,9.12
2023-02-14T17:41:39.339Z,8.90
2023-02-14T17:44:24.578Z,8.47
2023-02-14T17:47:09.718Z,8.19
2023-02-14T17:49:54.536Z,8.50
2023-02-14T17:52:40.590Z,8.24
2023-02-14T17:55:26.073Z,7.96
2023-02-14T17:58:11.094Z,8.13
2023-02-14T18:01:03.596Z,8.07
2023-02-14T18:03:49.286Z,8.13
2023-02-14T18:06:34.658Z,8.20
2023-02-14T18:09:20.464Z,8.28
2023-02-14T18:12:06.288Z,8.43
2023-02-14T18:14:51.068Z,8.41
2023-02-14T18:17:36.962Z,8.40
2023-02-14T18:20:22.877Z,8.40
2023-02-14T18:23:08.200Z,8.56
2023-02-14T18:25:59.283Z,8.43
2023-02-14T18:28:45.110Z,8.57
2023-02-14T18:31:30.987Z,8.71
2023-02-14T18:34:16.289Z,8.46
2023-02-14T18:37:01.969Z,8.52
2023-02-14T18:39:47.202Z,8.68
2023-02-14T18:42:32.143Z,8.62
2023-02-14T18:45:17.268Z,8.34
2023-02-14T18:48:02.450Z,8.21
2023-02-14T18:50:47.804Z,8.22
2023-02-14T18:53:32.903Z,8.09
2023-02-14T18:56:21.122Z,7.91
2023-02-14T18:59:08.529Z,7.78
2023-02-14T19:01:53.478Z,7.72
2023-02-14T19:04:38.678Z,7.81
2023-02-14T19:07:24.643Z,7.61
2023-02-14T19:10:10.242Z,7.67
2023-02-14T19:12:55.778Z,7.78
2023-02-14T19:15:41.255Z,7.74
2023-02-14T19:18:26.872Z,7.79
2023-02-14T19:21:22.197Z,7.72
2023-02-14T19:24:07.769Z,7.52
2023-02-14T19:26:54.480Z,7.52
2023-02-14T19:29:39.679Z,7.46
2023-02-14T19:32:25.189Z,7.48
2023-02-14T19:35:10.397Z,7.44
2023-02-14T19:37:55.726Z,7.46
2023-02-14T19:40:44.115Z,7.54
2023-02-14T19:43:29.139Z,7.39
2023-02-14T19:46:15.562Z,7.28
2023-02-14T19:49:01.595Z,7.25
2023-02-14T19:51:48.711Z,7.19
2023-02-14T19:54:38.307Z,7.16
2023-02-14T19:57:24.395Z,6.90
2023-02-14T20:00:10.481Z,6.80
2023-02-14T20:02:55.582Z,6.81
2023-02-14T20:05:41.009Z,6.69
2023-02-14T20:08:26.392Z,6.57
2023-02-14T20:11:28.587Z,6.47
2023-02-14T20:14:14.247Z,6.40
2023-02-14T20:17:01.618Z,6.32
2023-02-14T20:19:47.596Z,6.39
2023-02-14T20:22:32.460Z,6.27
2023-02-14T20:25:17.834Z,6.32
2023-02-14T20:28:03.177Z,6.24
2023-02-14T20:30:48.237Z,6.22
2023-02-14T20:33:33.643Z,6.25
2023-02-14T20:36:20.042Z,6.34
2023-02-14T20:39:07.078Z,6.27
2023-02-14T20:41:52.486Z,6.07
2023-02-14T20:44:37.984Z,5.93
2023-02-14T20:47:23.619Z,6.03
2023-02-14T20:50:09.517Z,6.06
2023-02-14T20:52:55.022Z,6.05
2023-02-14T20:55:40.539Z,5.93
2023-02-14T20:58:25.539Z,6.02
2023-02-14T21:01:22.939Z,6.11
2023-02-14T21:04:08.605Z,5.89
2023-02-14T21:06:54.072Z,5.90
2023-02-14T21:09:39.017Z,5.81
2023-02-14T21:12:24.464Z,5.94
2023-02-14T21:15:10.017Z,5.63
2023-02-14T21:17:55.124Z,5.34
2023-02-14T21:20:40.601Z,5.37
2023-02-14T21:23:25.602Z,5.38
2023-02-14T21:26:11.119Z,5.46
2023-02-14T21:28:56.280Z,5.52
2023-02-14T21:31:41.662Z,5.16
2023-02-14T21:34:26.894Z,5.35
2023-02-14T21:37:12.237Z,5.15
2023-02-14T21:39:57.229Z,4.85
2023-02-14T21:42:42.571Z,4.81
2023-02-14T21:45:27.713Z,4.86
2023-02-14T21:48:12.993Z,4.88
2023-02-14T21:50:58.554Z,4.56
2023-02-14T21:53:44.709Z,4.51
2023-02-14T21:56:29.602Z,4.51
2023-02-14T21:59:14.440Z,4.39
2023-02-14T22:01:59.057Z,4.41
2023-02-14T22:04:44.054Z,4.57
2023-02-14T22:07:29.315Z,4.51
2023-02-14T22:10:14.794Z,4.37
2023-02-14T22:12:59.930Z,4.35
2023-02-14T22:15:45.221Z,4.30
2023-02-14T22:18:31.237Z,4.32
2023-02-14T22:21:19.910Z,4.38
2023-02-14T22:24:05.571Z,4.32
2023-02-14T22:26:50.818Z,4.17
2023-02-14T22:29:35.725Z,4.17
2023-02-14T22:32:21.319Z,4.05
2023-02-14T22:35:06.950Z,3.93
2023-02-14T22:37:52.369Z,3.77
2023-02-14T22:40:37.597Z,3.89
2023-02-14T22:43:22.728Z,3.96
2023-02-14T22:46:16.354Z,3.93
2023-02-14T22:49:01.679Z,4.13
2023-02-14T22:51:47.066Z,3.94
2023-02-14T22:54:32.392Z,3.68
2023-02-14T22:57:20.561Z,3.53
2023-02-14T23:00:06.304Z,3.39
2023-02-14T23:02:51.573Z,3.55
2023-02-14T23:05:36.872Z,3.85
2023-02-14T23:08:22.255Z,3.71
2023-02-14T23:11:12.488Z,3.56
2023-02-14T23:13:57.734Z,3.51
2023-02-14T23:16:43.062Z,3.34
2023-02-14T23:19:31.080Z,3.30
2023-02-14T23:22:21.157Z,3.29
2023-02-14T23:25:08.677Z,3.33
2023-02-14T23:27:53.980Z,3.28
2023-02-14T23:30:39.299Z,3.16
2023-02-14T23:33:24.487Z,3.17
2023-02-14T23:36:09.876Z,3.20
2023-02-14T23:38:54.881Z,3.05
2023-02-14T23:41:40.267Z,3.11
2023-02-14T23:44:28.267Z,3.13
2023-02-14T23:47:13.964Z,3.10
2023-02-14T23:49:59.511Z,3.05
2023-02-14T23:52:44.526Z,3.01
2023-02-14T23:55:30.094Z,2.93
2023-02-14T23:58:15.316Z,2.96
